• Join FlightAware (Why Join?)
  • Login
  • US Flag 
Rudolph Flight #1: Scheduled 
09:20PM EST


 

Airport Tracker/Info


-or-


 

Live Flight TrackerFlight Track Log ✈ SWA3561 ✈ 01-Jun-2013 ✈ KDAL - KSAT

Flight Track Log - Related Links

Times and Time Zones

All times are in EDT time to prevent confusion due to time zone crossing. See the SWA3561 flight status page for this flight to view local times or setup timezone preferences in your user account.

Time Position Orientation Groundspeed Altitude Reporting Facility
EDT Latitude Longitude Course Direction KTS MPH feet Rate Location/Type
09:51AM 32.8333 -96.8333 121° Southeast 166 191 1,600  Level Dallas / Fort Worth TRACON
09:52AM 32.8167 -96.8000 121° Southeast 189 217 2,400 2,280 Climbing Dallas / Fort Worth TRACON
09:53AM 32.7833 -96.7500 128° Southeast 239 275 5,100 1,740 Climbing Dallas / Fort Worth TRACON
09:54AM 32.7000 -96.7333 170° South 291 335 5,900 1,680 Climbing Dallas / Fort Worth TRACON
09:56AM 32.5814 -96.8192 211° Southwest 252 290 10,200 2,100 Climbing Fort Worth Center
09:57AM 32.5211 -96.8689 215° Southwest 279 321 12,200 1,920 Climbing Fort Worth Center
09:58AM 32.4192 -96.9139 200° South 331 381 14,100 2,280 Climbing Fort Worth Center
09:59AM 32.3294 -96.9414 195° South 370 426 16,800 2,580 Climbing Fort Worth Center
10:00AM 32.2250 -96.9739 195° South 380 437 19,300 2,280 Climbing Fort Worth Center
10:01AM 32.1167 -97.0086 195° South 390 449 21,400 2,100 Climbing Fort Worth Center
10:02AM 32.0061 -97.0386 193° South 403 464 23,600 1,920 Climbing Fort Worth Center
10:03AM 31.8808 -97.0806 196° South 408 470 25,300 1,560 Climbing Fort Worth Center
10:04AM 31.7867 -97.1078 194° South 434 499 26,500 1,440 Climbing Houston Center
10:05AM 31.6628 -97.1469 195° South 450 518 28,000 1,680 Climbing Houston Center
10:06AM 31.5403 -97.1836 194° South 451 519 30,000 960 Climbing Houston Center
10:07AM 31.4197 -97.2203 195° South 444 511 30,000  Level Houston Center
10:08AM 31.2992 -97.2558 194° South 443 510 30,000  Level Houston Center
10:09AM 31.1817 -97.2919 195° South 437 503 30,000  Level Houston Center
10:10AM 31.0664 -97.3272 195° South 430 495 30,000  Level Houston Center
10:11AM 30.9325 -97.3647 194° South 431 496 30,000  Level Houston Center
10:12AM 30.8181 -97.4006 195° South 429 494 30,000  Level Houston Center
10:13AM 30.7061 -97.4328 194° South 417 480 30,000 -540 Level Houston Center
10:14AM 30.5931 -97.4661 194° South 415 478 28,900 -1,800 Descending Houston Center
10:15AM 30.4822 -97.4994 195° South 410 472 26,300 -2,400 Descending Houston Center
10:16AM 30.3736 -97.5331 195° South 400 460 24,000 -1,560 Descending Houston Center
10:17AM 30.2825 -97.5967 211° Southwest 379 436 23,200 -1,440 Descending Houston Center
10:17AM 30.2317 -97.6331 212° Southwest 424 488 21,800 -2,400 Descending Houston Center
10:18AM 30.1900 -97.6603 209° Southwest 380 437 20,800 -2,520 Descending Houston Center
10:18AM 30.1408 -97.6931 210° Southwest 398 458 19,500 -2,820 Descending Houston Center
10:19AM 30.0861 -97.7319 212° Southwest 371 427 17,900 -2,640 Descending Houston Center
10:19AM 30.0483 -97.7581 211° Southwest 363 418 16,900 -2,340 Descending Houston Center
10:20AM 29.9947 -97.7939 210° Southwest 365 420 15,500 -2,280 Descending Houston Center
10:20AM 29.9639 -97.8172 213° Southwest 358 412 14,600 -2,340 Descending Houston Center
10:21AM 29.9097 -97.8539 210° Southwest 359 413 13,100 -1,800 Descending Houston Center
10:21AM 29.8886 -97.8869 234° Southwest 352 405 12,800 -2,100 Descending Houston Center
10:22AM 29.8603 -97.9492 242° Southwest 347 399 11,000 -2,400 Descending Houston Center
10:22AM 29.8436 -97.9867 243° Southwest 347 399 10,400 -1,080 Descending Houston Center
10:23AM 29.8178 -98.0517 245° Southwest 329 379 9,900 -1,140 Descending Houston Center
10:24AM 29.8039 -98.1000 252° West 302 348 9,100 -1,500 Descending Houston Center
10:24AM 29.7939 -98.1431 255° West 302 348 8,400 -1,320 Descending Houston Center
10:25AM 29.7850 -98.1914 258° West 284 327 7,800 -1,200 Descending Houston Center
10:25AM 29.7764 -98.2369 258° West 281 323 7,200 -1,440 Descending Houston Center
10:26AM 29.7700 -98.2753 259° West 271 312 6,400 -1,080 Descending Houston Center
10:26AM 29.7628 -98.3214 260° West 270 311 6,100 -420 Descending Houston Center
10:27AM 29.7553 -98.3661 259° West 261 300 6,000  Descending Houston Center
10:27AM 29.7500 -98.4025 261° West 261 300 6,100  Climbing Houston Center
10:28AM 29.7436 -98.4469 261° West 260 299 6,000 -540 Descending Houston Center
10:28AM 29.7367 -98.4897 259° West 259 298 5,600 -1,140 Descending Houston Center
10:29AM 29.7319 -98.5253 261° West 250 288 4,900 -1,320 Descending Houston Center
10:29AM 29.7236 -98.5653 257° West 245 282 4,300 -1,380 Descending Houston Center
10:30AM 29.7069 -98.5956 238° Southwest 231 266 3,500 -1,260 Descending Houston Center
10:30AM 29.6817 -98.6272 227° Southwest 230 265 3,000 -600 Descending Houston Center
10:31AM 29.6578 -98.6328 191° South 190 219 2,900 60 Descending Houston Center
10:31AM 29.6417 -98.6131 133° Southeast 185 213 3,100 60 Climbing Houston Center
10:32AM 29.6294 -98.5978 133° Southeast 174 200 3,000 -300 Descending Houston Center
10:32AM 29.6097 -98.5714 131° Southeast 178 205 2,800 -720 Descending Houston Center
10:33AM 29.5961 -98.5561 136° Southeast 162 186 2,300 -780 Descending Houston Center
10:33AM 29.5808 -98.5336 128° Southeast 151 174 2,000 -720 Descending Houston Center
10:34AM 29.5700 -98.5231 140° Southeast 136 157 1,600 -720 Descending Houston Center
10:34AM 29.5556 -98.5000 126° Southeast 142 163 1,300 -420 Descending Houston Center
10:35AM 29.5319 -98.4686 131° Southeast 140 161 900 -420 Descending Houston Center
10:37AM 29.5333 -98.4667 16° North  Level FlightAware Approximate
10:44AM 29.5340 -98.4691 16° North  Level Estimated